createdAt,value
2018-07-01T00:00:50.543Z,2.03
2018-07-01T00:03:19.997Z,1.37
2018-07-01T00:05:49.379Z,1.73
2018-07-01T00:08:17.888Z,1.53
2018-07-01T00:10:46.464Z,1.60
2018-07-01T00:13:15.023Z,1.40
2018-07-01T00:15:43.528Z,1.77
2018-07-01T00:18:12.108Z,1.43
2018-07-01T00:20:40.520Z,1.43
2018-07-01T00:23:09.782Z,1.30
2018-07-01T00:25:38.305Z,1.60
2018-07-01T00:28:07.657Z,1.30
2018-07-01T00:30:36.225Z,1.53
2018-07-01T00:33:04.657Z,1.50
2018-07-01T00:35:32.921Z,1.17
2018-07-01T00:38:01.330Z,1.40
2018-07-01T00:40:29.885Z,1.90
2018-07-01T00:42:58.332Z,2.00
2018-07-01T00:45:26.748Z,1.97
2018-07-01T00:47:55.220Z,2.17
2018-07-01T00:50:23.676Z,1.90
2018-07-01T00:52:52.184Z,2.03
2018-07-01T00:55:20.667Z,1.77
2018-07-01T00:57:49.162Z,2.07
2018-07-01T01:00:21.724Z,1.30
2018-07-01T01:02:50.066Z,1.80
2018-07-01T01:05:18.342Z,1.77
2018-07-01T01:07:46.726Z,1.43
2018-07-01T01:10:15.055Z,1.60
2018-07-01T01:12:43.348Z,1.73
2018-07-01T01:15:11.710Z,2.07
2018-07-01T01:17:40.075Z,1.43
2018-07-01T01:20:08.345Z,1.50
2018-07-01T01:22:36.900Z,1.50
2018-07-01T01:25:05.169Z,1.60
2018-07-01T01:27:33.457Z,2.00
2018-07-01T01:30:01.701Z,1.63
2018-07-01T01:32:31.090Z,1.50
2018-07-01T01:34:59.501Z,1.63
2018-07-01T01:37:27.870Z,1.40
2018-07-01T01:39:56.127Z,2.10
2018-07-01T01:43:27.758Z,1.73
2018-07-01T01:46:05.587Z,1.80
2018-07-01T01:48:41.185Z,1.50
2018-07-01T01:51:18.738Z,1.53
2018-07-01T01:53:55.866Z,1.30
2018-07-01T01:56:31.151Z,1.67
2018-07-01T01:59:10.354Z,1.70
2018-07-01T02:01:43.251Z,1.90
2018-07-01T02:04:19.016Z,2.03
2018-07-01T02:06:51.480Z,1.40
2018-07-01T02:09:22.295Z,2.00
2018-07-01T02:11:53.244Z,1.50
2018-07-01T02:14:44.113Z,1.63
2018-07-01T02:17:16.800Z,2.03
2018-07-01T02:19:45.224Z,1.50
2018-07-01T02:22:15.837Z,1.83
2018-07-01T02:24:46.612Z,1.60
2018-07-01T02:27:15.053Z,1.60
2018-07-01T02:29:43.454Z,1.67
2018-07-01T02:32:11.721Z,1.47
2018-07-01T02:34:40.065Z,1.80
2018-07-01T02:37:08.295Z,1.60
2018-07-01T02:39:36.677Z,2.17
2018-07-01T02:42:05.004Z,1.93
2018-07-01T02:44:33.316Z,1.83
2018-07-01T02:47:01.522Z,2.10
2018-07-01T02:49:29.734Z,2.10
2018-07-01T02:51:58.091Z,1.40
2018-07-01T02:54:26.451Z,2.10
2018-07-01T02:56:54.671Z,2.10
2018-07-01T02:59:22.987Z,1.73
2018-07-01T03:01:51.249Z,1.53
2018-07-01T03:04:19.579Z,2.20
2018-07-01T03:06:47.852Z,1.63
2018-07-01T03:09:17.120Z,1.73
2018-07-01T03:11:45.484Z,1.60
2018-07-01T03:14:13.696Z,1.53
2018-07-01T03:16:42.003Z,1.57
2018-07-01T03:19:10.406Z,2.20
2018-07-01T03:21:38.637Z,2.20
2018-07-01T03:24:06.970Z,1.83
2018-07-01T03:26:35.317Z,1.70
2018-07-01T03:29:03.585Z,2.27
2018-07-01T03:31:31.849Z,1.73
2018-07-01T03:34:00.141Z,2.23
2018-07-01T03:36:28.496Z,1.67
2018-07-01T03:38:56.783Z,1.70
2018-07-01T03:41:25.091Z,2.30
2018-07-01T03:43:53.739Z,1.47
2018-07-01T03:46:22.102Z,1.93
2018-07-01T03:48:50.381Z,2.03
2018-07-01T03:51:18.747Z,2.00
2018-07-01T03:53:47.990Z,1.60
2018-07-01T03:56:16.350Z,1.63
2018-07-01T03:58:44.643Z,2.40
2018-07-01T04:01:12.968Z,1.53
2018-07-01T04:03:41.307Z,1.93
2018-07-01T04:06:09.552Z,1.77
2018-07-01T04:08:37.772Z,2.40
2018-07-01T04:11:06.232Z,1.37
2018-07-01T04:13:34.585Z,1.87
2018-07-01T04:16:02.912Z,2.17
2018-07-01T04:18:31.240Z,2.17
2018-07-01T04:20:59.455Z,1.53
2018-07-01T04:23:28.730Z,2.07
2018-07-01T04:25:57.007Z,2.60
2018-07-01T04:28:25.205Z,1.53
2018-07-01T04:30:53.560Z,1.57
2018-07-01T04:33:21.879Z,1.80
2018-07-01T04:35:50.159Z,1.47
2018-07-01T04:38:18.397Z,1.97
2018-07-01T04:40:46.672Z,2.10
2018-07-01T04:43:14.872Z,1.87
2018-07-01T04:45:43.110Z,1.90
2018-07-01T04:48:11.479Z,1.43
2018-07-01T04:50:40.615Z,1.60
2018-07-01T04:53:08.871Z,1.27
2018-07-01T04:55:37.293Z,1.70
2018-07-01T04:58:05.830Z,1.93
2018-07-01T05:00:34.511Z,1.43
2018-07-01T05:03:02.920Z,1.60
2018-07-01T05:05:31.179Z,1.40
2018-07-01T05:07:59.562Z,1.83
2018-07-01T05:10:27.925Z,1.50
2018-07-01T05:12:56.144Z,1.40
2018-07-01T05:15:24.472Z,2.33
2018-07-01T05:17:52.836Z,1.50
2018-07-01T05:20:21.103Z,1.40
2018-07-01T05:22:49.504Z,1.53
2018-07-01T05:25:17.881Z,1.10
2018-07-01T05:27:46.227Z,1.70
2018-07-01T05:30:14.436Z,1.80
2018-07-01T05:32:42.660Z,1.67
2018-07-01T05:35:11.015Z,1.27
2018-07-01T05:37:39.356Z,2.00
2018-07-01T05:40:07.679Z,1.40
2018-07-01T05:42:36.081Z,1.37
2018-07-01T05:45:04.319Z,1.80
2018-07-01T05:47:32.755Z,1.60
2018-07-01T05:50:01.137Z,1.63
2018-07-01T05:52:29.478Z,1.13
2018-07-01T05:54:57.714Z,1.50
2018-07-01T05:57:26.109Z,1.77
2018-07-01T05:59:54.412Z,1.50
2018-07-01T06:02:22.626Z,1.53
2018-07-01T06:04:50.957Z,1.30
2018-07-01T06:07:19.260Z,1.33
2018-07-01T06:09:47.611Z,1.63
2018-07-01T06:12:15.913Z,1.30
2018-07-01T06:14:44.270Z,1.73
2018-07-01T06:17:12.525Z,1.60
2018-07-01T06:19:40.799Z,1.53
2018-07-01T06:22:09.021Z,1.33
2018-07-01T06:24:38.236Z,1.60
2018-07-01T06:27:06.653Z,1.40
2018-07-01T06:29:34.996Z,1.93
2018-07-01T06:32:03.389Z,1.87
2018-07-01T06:34:31.753Z,1.40
2018-07-01T06:37:00.071Z,1.30
2018-07-01T06:39:28.371Z,1.27
2018-07-01T06:41:56.801Z,1.40
2018-07-01T06:44:25.159Z,1.47
2018-07-01T06:46:53.490Z,1.43
2018-07-01T06:49:21.774Z,1.40
2018-07-01T06:51:50.032Z,1.70
2018-07-01T06:54:18.415Z,1.07
2018-07-01T06:56:46.650Z,1.47
2018-07-01T06:59:14.993Z,1.23
2018-07-01T07:01:43.310Z,1.57
2018-07-01T07:04:11.708Z,1.93
2018-07-01T07:06:40.079Z,1.30
2018-07-01T07:09:09.377Z,1.70
2018-07-01T07:11:37.712Z,1.90
2018-07-01T07:14:06.041Z,1.20
2018-07-01T07:16:34.384Z,1.73
2018-07-01T07:19:02.623Z,1.30
2018-07-01T07:21:30.978Z,1.37
2018-07-01T07:23:59.261Z,1.60
2018-07-01T07:26:27.643Z,1.37
2018-07-01T07:28:55.999Z,1.60
2018-07-01T07:31:24.354Z,1.50
2018-07-01T07:33:52.595Z,1.77
2018-07-01T07:36:20.953Z,1.73
2018-07-01T07:38:49.201Z,1.00
2018-07-01T07:41:17.550Z,1.70
2018-07-01T07:43:45.907Z,1.50
2018-07-01T07:46:14.298Z,1.07
2018-07-01T07:48:43.576Z,1.67
2018-07-01T07:51:11.883Z,1.60
2018-07-01T07:53:40.132Z,1.43
2018-07-01T07:56:08.510Z,1.20
2018-07-01T07:58:36.837Z,1.40
2018-07-01T08:01:05.223Z,1.47
2018-07-01T08:03:34.643Z,1.37
2018-07-01T08:06:03.075Z,1.47
2018-07-01T08:08:31.428Z,1.67
2018-07-01T08:10:59.774Z,1.70
2018-07-01T08:13:28.067Z,1.57
2018-07-01T08:15:56.443Z,1.40
2018-07-01T08:18:24.869Z,1.43
2018-07-01T08:20:53.121Z,1.70
2018-07-01T08:23:21.486Z,1.50
2018-07-01T08:25:49.889Z,1.53
2018-07-01T08:28:18.238Z,1.13
2018-07-01T08:30:46.585Z,1.47
2018-07-01T08:33:16.945Z,1.27
2018-07-01T08:35:45.386Z,1.57
2018-07-01T08:38:13.734Z,1.20
2018-07-01T08:40:41.993Z,1.63
2018-07-01T08:43:10.281Z,1.53
2018-07-01T08:45:38.634Z,1.60
2018-07-01T08:48:07.014Z,1.27
2018-07-01T08:50:35.247Z,1.20
2018-07-01T08:53:03.574Z,1.63
2018-07-01T08:55:31.943Z,1.37
2018-07-01T08:58:00.395Z,1.63
2018-07-01T09:00:28.752Z,1.83
2018-07-01T09:02:57.156Z,1.40
2018-07-01T09:05:25.594Z,1.50
2018-07-01T09:07:54.021Z,1.33
2018-07-01T09:10:22.380Z,1.47
2018-07-01T09:12:50.740Z,1.07
2018-07-01T09:15:19.064Z,1.20
2018-07-01T09:17:47.468Z,1.43
2018-07-01T09:20:15.732Z,1.63
2018-07-01T09:22:44.060Z,1.30
2018-07-01T09:25:12.434Z,1.07
2018-07-01T09:27:40.732Z,1.40
2018-07-01T09:30:09.105Z,1.80
2018-07-01T09:32:37.406Z,1.40
2018-07-01T09:35:05.791Z,1.60
2018-07-01T09:37:34.198Z,1.57
2018-07-01T09:40:02.488Z,1.77
2018-07-01T09:42:30.832Z,1.00
2018-07-01T09:44:59.110Z,1.67
2018-07-01T09:47:27.438Z,1.83
2018-07-01T09:49:55.700Z,1.93
2018-07-01T09:52:24.105Z,1.47
2018-07-01T09:54:52.425Z,1.90
2018-07-01T09:57:20.832Z,2.00
2018-07-01T09:59:49.191Z,1.80
2018-07-01T10:02:17.421Z,1.60
2018-07-01T10:04:45.794Z,1.57
2018-07-01T10:07:14.154Z,2.17
2018-07-01T10:09:42.566Z,1.37
2018-07-01T10:12:11.008Z,1.70
2018-07-01T10:14:40.376Z,2.10
2018-07-01T10:17:08.771Z,1.90
2018-07-01T10:19:37.034Z,1.30
2018-07-01T10:22:05.375Z,1.70
2018-07-01T10:24:33.781Z,1.90
2018-07-01T10:27:02.116Z,1.53
2018-07-01T10:29:30.355Z,1.57
2018-07-01T10:31:58.759Z,1.63
2018-07-01T10:34:27.105Z,1.60
2018-07-01T10:36:55.516Z,1.40
2018-07-01T10:39:24.799Z,2.00
2018-07-01T10:41:53.125Z,1.73
2018-07-01T10:44:21.515Z,1.80
2018-07-01T10:46:49.937Z,1.80
2018-07-01T10:49:18.366Z,1.37
2018-07-01T10:51:46.754Z,1.83
2018-07-01T10:54:14.939Z,1.60
2018-07-01T10:56:43.316Z,1.87
2018-07-01T10:59:11.734Z,1.83
2018-07-01T11:01:40.045Z,1.63
2018-07-01T11:04:08.425Z,1.60
2018-07-01T11:06:36.819Z,1.47
2018-07-01T11:09:07.987Z,1.47
2018-07-01T11:11:36.315Z,1.70
2018-07-01T11:14:04.662Z,1.87
2018-07-01T11:16:32.966Z,2.23
2018-07-01T11:19:01.314Z,1.73
2018-07-01T11:21:29.557Z,1.50
2018-07-01T11:23:57.899Z,1.77
2018-07-01T11:26:26.132Z,1.77
2018-07-01T11:28:54.509Z,1.80
2018-07-01T11:31:22.856Z,1.60
2018-07-01T11:33:51.324Z,1.90
2018-07-01T11:36:19.617Z,1.80
2018-07-01T11:38:48.025Z,1.83
2018-07-01T11:41:16.386Z,1.77
2018-07-01T11:43:44.726Z,2.03
2018-07-01T11:46:13.091Z,1.80
2018-07-01T11:48:41.364Z,1.80
2018-07-01T11:51:09.623Z,2.13
2018-07-01T11:53:38.065Z,1.90
2018-07-01T11:56:06.335Z,1.60
2018-07-01T11:58:34.764Z,1.90
2018-07-01T12:01:03.176Z,1.80
2018-07-01T12:03:31.549Z,2.00
2018-07-01T12:05:59.884Z,1.63
2018-07-01T12:08:28.331Z,1.80
2018-07-01T12:10:56.686Z,1.97
2018-07-01T12:13:25.057Z,2.20
2018-07-01T12:15:53.479Z,2.10
2018-07-01T12:18:21.814Z,1.97
2018-07-01T12:20:50.110Z,1.77
2018-07-01T12:23:18.544Z,2.10
2018-07-01T12:25:46.851Z,2.20
2018-07-01T12:28:15.224Z,2.07
2018-07-01T12:30:43.453Z,1.80
2018-07-01T12:33:11.931Z,1.90
2018-07-01T12:35:40.255Z,2.00
2018-07-01T12:38:08.527Z,1.90
2018-07-01T12:40:36.919Z,2.10
2018-07-01T12:43:05.294Z,2.20
2018-07-01T12:45:33.747Z,2.00
2018-07-01T12:48:02.084Z,2.13
2018-07-01T12:50:30.478Z,2.00
2018-07-01T12:52:58.848Z,2.00
2018-07-01T12:55:27.293Z,1.97
2018-07-01T12:57:55.651Z,1.67
2018-07-01T13:00:23.948Z,2.00
2018-07-01T13:02:52.313Z,2.20
2018-07-01T13:05:20.585Z,2.10
2018-07-01T13:07:48.933Z,1.93
2018-07-01T13:10:17.224Z,2.20
2018-07-01T13:12:45.646Z,2.60
2018-07-01T13:15:13.934Z,3.00
2018-07-01T13:17:42.274Z,2.50
2018-07-01T13:20:10.619Z,2.47
2018-07-01T13:22:39.047Z,2.60
2018-07-01T13:25:07.446Z,2.20
2018-07-01T13:27:35.748Z,2.85
2018-07-01T13:30:04.782Z,2.75
2018-07-01T13:32:33.083Z,2.17
2018-07-01T13:35:01.448Z,2.80
2018-07-01T13:37:29.865Z,2.83
2018-07-01T13:39:58.284Z,2.50
2018-07-01T13:42:26.629Z,2.55
2018-07-01T13:44:54.981Z,2.17
2018-07-01T13:47:23.378Z,2.40
2018-07-01T13:49:51.784Z,2.72
2018-07-01T13:52:20.062Z,2.72
2018-07-01T13:54:48.358Z,3.00
2018-07-01T13:57:16.762Z,2.70
2018-07-01T13:59:45.140Z,2.98
2018-07-01T14:02:13.503Z,3.12
2018-07-01T14:04:41.927Z,2.70
2018-07-01T14:07:10.316Z,2.77
2018-07-01T14:09:38.773Z,2.75
2018-07-01T14:12:07.136Z,3.37
2018-07-01T14:14:35.466Z,2.70
2018-07-01T14:17:03.771Z,3.02
2018-07-01T14:19:32.055Z,2.70
2018-07-01T14:22:00.424Z,3.05
2018-07-01T14:24:28.900Z,2.80
2018-07-01T14:26:57.311Z,3.10
2018-07-01T14:29:25.821Z,2.92
2018-07-01T14:31:54.162Z,3.25
2018-07-01T14:34:22.558Z,3.12
2018-07-01T14:36:51.925Z,3.20
2018-07-01T14:39:20.284Z,3.45
2018-07-01T14:41:48.696Z,3.08
2018-07-01T14:44:16.995Z,3.17
2018-07-01T14:46:45.358Z,2.90
2018-07-01T14:49:13.891Z,2.72
2018-07-01T14:51:42.159Z,2.77
2018-07-01T14:54:10.419Z,3.05
2018-07-01T14:56:38.826Z,3.00
2018-07-01T14:59:07.252Z,2.80
2018-07-01T15:01:35.526Z,2.83
2018-07-01T15:04:04.038Z,3.10
2018-07-01T15:06:32.430Z,2.80
2018-07-01T15:09:00.722Z,3.00
2018-07-01T15:11:29.321Z,3.30
2018-07-01T15:13:57.638Z,3.20
2018-07-01T15:16:26.067Z,3.10
2018-07-01T15:18:54.315Z,3.05
2018-07-01T15:21:22.704Z,3.37
2018-07-01T15:23:51.384Z,3.60
2018-07-01T15:26:19.771Z,3.05
2018-07-01T15:28:48.183Z,3.27
2018-07-01T15:31:16.527Z,3.52
2018-07-01T15:33:44.905Z,3.50
2018-07-01T15:36:13.283Z,3.33
2018-07-01T15:38:41.608Z,3.60
2018-07-01T15:41:09.807Z,3.05
2018-07-01T15:43:38.056Z,3.37
2018-07-01T15:46:06.357Z,3.02
2018-07-01T15:48:34.664Z,3.40
2018-07-01T15:51:03.008Z,3.25
2018-07-01T15:53:31.360Z,3.75
2018-07-01T15:55:59.645Z,3.80
2018-07-01T15:58:27.974Z,3.27
2018-07-01T16:00:56.325Z,3.17
2018-07-01T16:03:24.672Z,3.27
2018-07-01T16:05:52.968Z,3.70
2018-07-01T16:08:21.335Z,3.17
2018-07-01T16:10:49.759Z,3.02
2018-07-01T16:13:18.067Z,3.17
2018-07-01T16:15:46.470Z,3.02
2018-07-01T16:18:14.781Z,3.40
2018-07-01T16:20:43.030Z,2.92
2018-07-01T16:23:11.294Z,3.05
2018-07-01T16:26:46.984Z,3.05
2018-07-01T16:29:15.338Z,2.83
2018-07-01T16:31:43.759Z,2.95
2018-07-01T16:34:13.189Z,2.80
2018-07-01T16:36:41.415Z,2.80
2018-07-01T16:39:10.910Z,2.50
2018-07-01T16:41:39.251Z,3.00
2018-07-01T16:44:07.690Z,3.00
2018-07-01T16:46:35.997Z,2.30
2018-07-01T16:49:04.455Z,3.00
2018-07-01T16:51:32.754Z,2.80
2018-07-01T16:54:01.051Z,2.33
2018-07-01T16:56:29.342Z,2.55
2018-07-01T16:58:57.814Z,2.25
2018-07-01T17:01:26.158Z,2.27
2018-07-01T17:03:54.406Z,2.70
2018-07-01T17:06:23.996Z,2.08
2018-07-01T17:08:52.400Z,2.80
2018-07-01T17:11:20.688Z,2.50
2018-07-01T17:13:48.960Z,2.67
2018-07-01T17:16:17.323Z,2.90
2018-07-01T17:18:45.699Z,2.67
2018-07-01T17:21:14.048Z,2.50
2018-07-01T17:23:42.493Z,2.30
2018-07-01T17:26:10.875Z,3.10
2018-07-01T17:28:39.208Z,2.00
2018-07-01T17:32:12.064Z,2.00
2018-07-01T17:34:40.555Z,2.53
2018-07-01T17:37:08.934Z,2.37
2018-07-01T17:39:37.172Z,1.97
2018-07-01T17:42:05.593Z,2.10
2018-07-01T17:44:33.974Z,2.60
2018-07-01T17:47:02.473Z,1.70
2018-07-01T17:49:30.735Z,2.00
2018-07-01T17:51:59.024Z,1.60
2018-07-01T17:54:27.396Z,2.10
2018-07-01T17:56:55.668Z,1.80
2018-07-01T17:59:23.956Z,2.23
2018-07-01T18:01:53.094Z,2.40
2018-07-01T18:04:21.549Z,1.53
2018-07-01T18:06:49.895Z,2.07
2018-07-01T18:09:18.277Z,2.10
2018-07-01T18:11:46.628Z,2.03
2018-07-01T18:14:15.024Z,2.47
2018-07-01T18:16:43.304Z,2.00
2018-07-01T18:19:11.724Z,2.10
2018-07-01T18:21:48.144Z,2.20
2018-07-01T18:24:35.139Z,1.90
2018-07-01T18:26:37.007Z,2.10
2018-07-01T18:29:10.775Z,1.90
2018-07-01T18:31:33.590Z,2.00
2018-07-01T18:34:02.009Z,2.10
2018-07-01T18:36:30.444Z,1.90
2018-07-01T18:38:58.814Z,2.00
2018-07-01T18:41:27.164Z,2.13
2018-07-01T18:43:55.530Z,2.00
2018-07-01T18:46:23.728Z,1.90
2018-07-01T18:48:52.079Z,1.90
2018-07-01T18:51:20.331Z,3.40
2018-07-01T18:53:48.664Z,2.20
2018-07-01T18:56:16.995Z,1.97
2018-07-01T18:58:45.453Z,1.90
2018-07-01T19:01:13.854Z,2.03
2018-07-01T19:03:42.188Z,2.07
2018-07-01T19:06:10.577Z,2.60
2018-07-01T19:08:38.981Z,2.10
2018-07-01T19:11:07.264Z,2.07
2018-07-01T19:13:35.627Z,2.47
2018-07-01T19:16:04.195Z,2.67
2018-07-01T19:18:32.777Z,2.20
2018-07-01T19:21:02.748Z,2.10
2018-07-01T19:23:31.047Z,1.90
2018-07-01T19:25:59.387Z,2.60
2018-07-01T19:28:27.691Z,2.27
2018-07-01T19:30:56.083Z,2.77
2018-07-01T19:33:24.412Z,2.20
2018-07-01T19:35:52.728Z,2.43
2018-07-01T19:38:21.143Z,2.13
2018-07-01T19:40:49.474Z,1.80
2018-07-01T19:43:17.904Z,1.60
2018-07-01T19:45:46.254Z,2.30
2018-07-01T19:48:14.534Z,1.50
2018-07-01T19:50:42.878Z,1.57
2018-07-01T19:53:11.148Z,1.90
2018-07-01T19:55:39.522Z,1.77
2018-07-01T19:58:07.886Z,1.67
2018-07-01T20:00:36.193Z,1.30
2018-07-01T20:03:04.702Z,1.90
2018-07-01T20:05:33.024Z,1.60
2018-07-01T20:08:01.358Z,1.43
2018-07-01T20:10:29.744Z,1.60
2018-07-01T20:12:58.141Z,1.60
2018-07-01T20:15:26.438Z,1.87
2018-07-01T20:17:54.775Z,1.30
2018-07-01T20:20:23.050Z,1.33
2018-07-01T20:22:51.405Z,2.03
2018-07-01T20:25:19.654Z,1.70
2018-07-01T20:27:48.999Z,1.83
2018-07-01T20:30:17.457Z,1.20
2018-07-01T20:32:45.891Z,1.20
2018-07-01T20:35:14.265Z,1.30
2018-07-01T20:37:42.591Z,1.60
2018-07-01T20:40:10.812Z,1.60
2018-07-01T20:42:40.154Z,2.30
2018-07-01T20:45:08.512Z,1.37
2018-07-01T20:47:36.894Z,2.10
2018-07-01T20:50:05.277Z,1.43
2018-07-01T20:52:33.646Z,1.70
2018-07-01T20:55:02.011Z,1.60
2018-07-01T20:57:30.383Z,1.13
2018-07-01T20:59:58.884Z,2.07
2018-07-01T21:02:27.178Z,1.30
2018-07-01T21:04:55.506Z,1.77
2018-07-01T21:07:23.898Z,1.57
2018-07-01T21:09:52.216Z,1.97
2018-07-01T21:12:20.580Z,1.07
2018-07-01T21:14:48.856Z,1.70
2018-07-01T21:17:17.193Z,1.70
2018-07-01T21:19:45.534Z,1.40
2018-07-01T21:22:13.745Z,1.13
2018-07-01T21:24:42.118Z,2.00
2018-07-01T21:27:10.469Z,1.53
2018-07-01T21:29:38.936Z,1.40
2018-07-01T21:32:07.311Z,1.73
2018-07-01T21:34:35.533Z,1.57
2018-07-01T21:37:03.923Z,1.80
2018-07-01T21:39:32.222Z,1.83
2018-07-01T21:42:00.611Z,1.23
2018-07-01T21:44:28.951Z,1.20
2018-07-01T21:46:57.251Z,1.30
2018-07-01T21:49:25.607Z,1.17
2018-07-01T21:51:53.865Z,2.00
2018-07-01T21:54:22.238Z,1.40
2018-07-01T21:56:50.551Z,1.27
2018-07-01T21:59:18.992Z,1.77
2018-07-01T22:01:47.374Z,1.90
2018-07-01T22:04:15.760Z,1.80
2018-07-01T22:06:49.658Z,1.43
2018-07-01T22:09:18.919Z,1.63
2018-07-01T22:11:53.866Z,1.77
2018-07-01T22:14:26.877Z,1.40
2018-07-01T22:16:55.251Z,2.30
2018-07-01T22:19:23.559Z,1.80
2018-07-01T22:21:52.818Z,2.00
2018-07-01T22:24:21.145Z,1.73
2018-07-01T22:26:49.540Z,2.00
2018-07-01T22:29:18.541Z,1.20
2018-07-01T22:31:46.888Z,1.23
2018-07-01T22:34:16.583Z,1.10
2018-07-01T22:36:45.832Z,1.27
2018-07-01T22:39:21.356Z,1.07
2018-07-01T22:41:50.310Z,1.40
2018-07-01T22:44:18.679Z,1.57
2018-07-01T22:46:47.629Z,1.10
2018-07-01T22:49:15.925Z,0.97
2018-07-01T22:51:44.198Z,1.27
2018-07-01T22:54:12.574Z,1.50
2018-07-01T22:56:40.927Z,1.20
2018-07-01T22:59:09.173Z,1.00
2018-07-01T23:01:42.966Z,1.50
2018-07-01T23:04:11.356Z,1.10
2018-07-01T23:06:39.759Z,1.50
2018-07-01T23:09:08.229Z,1.33
2018-07-01T23:11:36.544Z,1.43
2018-07-01T23:14:04.850Z,1.27
2018-07-01T23:16:33.270Z,1.43
2018-07-01T23:19:01.496Z,1.20
2018-07-01T23:21:29.857Z,1.43
2018-07-01T23:23:58.154Z,1.33
2018-07-01T23:26:26.366Z,1.77
2018-07-01T23:28:54.595Z,1.10
2018-07-01T23:31:22.834Z,1.50
2018-07-01T23:33:51.089Z,1.57
2018-07-01T23:36:19.420Z,1.23
2018-07-01T23:38:47.700Z,1.60
2018-07-01T23:41:16.045Z,1.80
2018-07-01T23:43:44.390Z,1.13
2018-07-01T23:46:12.725Z,1.17
2018-07-01T23:48:41.084Z,1.30
2018-07-01T23:51:09.387Z,1.10
2018-07-01T23:53:38.606Z,1.23
2018-07-01T23:56:07.017Z,1.93
2018-07-01T23:58:35.407Z,1.23
